»·PEaware :: FFT753 KDEN-KPHX

FFT753 :: KDEN-KPHX

FLIGHT INFORMATION

Flight Status: Arrived
Operator:
Frontier Airlines
More flights by this operator :: More flights under this callsign
Pilot: Anonymous 7386 (7386)
Aircraft: AIRBUS A320
(A320)
More flights by this aircraft type
Origin: KDEN Denver Intl
United States
Destination: KPHX Phoenix Sky Harbor Intl
United States
More flights between these airports :: More routes between these airports
Route: SMMUR1 DAAYE DCT GUP EAGUL6
File this flight plan on PilotEdge
Remarks:
Altitude:
(Current/Filed)
38,000ft
Speed:
(Current/Filed)
455kts
Departed: 28-Jul-20 04:09 PM
Arrived: 28-Jul-20 05:36 PM
Distance/Time
Traveled:
523nm/1:27
Distance/Time
To Go:
Arrived

Flight Plot

Page will automatically refresh every two minutes.

Flight plan parsing failed; only flown route is shown


Map Options




Map Legend


Flown Route
Filed Route
Departure Airport
Arrival Airport
Navaid (VOR, NDB)
Fix

Horizontal Profiles

Position Reports

Time Latitude Longitude Heading Altitude Ground
Speed
28-Jul-20 15:39 39.853428 -104.677532 27 5443ft 0kts
28-Jul-20 15:40 39.853428 -104.677532 27 5443ft 0kts
28-Jul-20 15:41 39.853428 -104.677532 27 5443ft 0kts
28-Jul-20 15:42 39.853428 -104.677532 27 5443ft 0kts
28-Jul-20 15:43 39.853428 -104.677532 27 5443ft 0kts
28-Jul-20 15:44 39.853428 -104.677532 27 5443ft 0kts
28-Jul-20 15:45 39.853428 -104.677532 27 5443ft 0kts
28-Jul-20 15:46 39.853428 -104.677532 27 5443ft 0kts
28-Jul-20 15:47 39.853428 -104.677532 27 5443ft 0kts
28-Jul-20 15:48 39.853428 -104.677532 27 5443ft 0kts
28-Jul-20 15:49 39.853428 -104.677532 27 5443ft 0kts
28-Jul-20 15:50 39.853428 -104.677532 27 5443ft 0kts
28-Jul-20 15:51 39.853428 -104.677532 27 5443ft 0kts
28-Jul-20 15:52 39.853428 -104.677532 27 5443ft 0kts
28-Jul-20 15:53 39.853428 -104.677532 27 5443ft 0kts
28-Jul-20 15:54 39.853428 -104.677532 27 5443ft 0kts
28-Jul-20 15:55 39.853428 -104.677532 27 5443ft 0kts
28-Jul-20 15:56 39.853428 -104.677532 27 5443ft 0kts
28-Jul-20 15:57 39.853270 -104.677549 349 5443ft 2kts
28-Jul-20 15:58 39.852750 -104.677535 0 5443ft 0kts
28-Jul-20 15:59 39.852751 -104.677535 0 5443ft 0kts
28-Jul-20 16:00 39.852751 -104.677535 0 5443ft 0kts
28-Jul-20 16:01 39.852751 -104.677535 0 5443ft 0kts
28-Jul-20 16:02 39.852803 -104.678277 269 5443ft 8kts
28-Jul-20 16:03 39.852499 -104.681318 245 5443ft 6kts
28-Jul-20 16:04 39.851477 -104.684078 179 5443ft 10kts
28-Jul-20 16:05 39.847264 -104.684084 182 5443ft 16kts
28-Jul-20 16:06 39.843105 -104.684147 180 5443ft 13kts
28-Jul-20 16:07 39.841599 -104.684173 180 5443ft 6kts
28-Jul-20 16:08 39.840679 -104.686826 270 5443ft 59kts
28-Jul-20 16:09 39.839621 -104.743721 245 6770ft 189kts
28-Jul-20 16:10 39.812483 -104.812415 241 8770ft 252kts
28-Jul-20 16:12 39.772610 -104.899213 218 10837ft 313kts
28-Jul-20 16:13 39.681574 -104.921630 169 12717ft 362kts
28-Jul-20 16:14 39.585944 -104.878188 153 15408ft 373kts
28-Jul-20 16:15 39.490689 -104.820102 176 17732ft 382kts
28-Jul-20 16:16 39.384370 -104.830734 202 19940ft 386kts
28-Jul-20 16:17 39.296430 -104.911814 218 21948ft 391kts
28-Jul-20 16:18 39.209140 -104.997822 218 23174ft 393kts
28-Jul-20 16:19 39.118196 -105.077693 208 23586ft 401kts
28-Jul-20 16:20 39.017965 -105.142667 208 25174ft 409kts
28-Jul-20 16:21 38.914298 -105.209677 209 26536ft 420kts
28-Jul-20 16:22 38.808199 -105.277934 209 27893ft 427kts
28-Jul-20 16:23 38.701002 -105.346753 209 29105ft 434kts
28-Jul-20 16:24 38.592075 -105.416457 209 30192ft 440kts
28-Jul-20 16:25 38.481651 -105.486855 209 31332ft 441kts
28-Jul-20 16:26 38.371601 -105.556028 209 32554ft 439kts
28-Jul-20 16:27 38.261081 -105.624635 209 33598ft 439kts
28-Jul-20 16:28 38.150984 -105.692779 208 34680ft 437kts
28-Jul-20 16:29 38.042266 -105.759856 208 35770ft 432kts
28-Jul-20 16:29 37.965164 -105.837974 227 36519ft 424kts
28-Jul-20 16:31 37.868249 -105.961803 226 37413ft 423kts
28-Jul-20 16:32 37.784911 -106.067852 226 38076ft 423kts
28-Jul-20 16:32 37.715281 -106.156187 226 38425ft 424kts
28-Jul-20 16:34 37.618419 -106.278651 226 38427ft 423kts
28-Jul-20 16:34 37.548782 -106.366404 226 38428ft 423kts
28-Jul-20 16:35 37.465400 -106.471153 226 38423ft 423kts
28-Jul-20 16:36 37.381433 -106.576284 226 38430ft 424kts
28-Jul-20 16:37 37.297562 -106.680944 226 38432ft 424kts
28-Jul-20 16:38 37.213668 -106.785284 226 38429ft 424kts
28-Jul-20 16:39 37.129405 -106.889737 226 38366ft 424kts
28-Jul-20 16:40 37.045116 -106.993875 226 38292ft 424kts
28-Jul-20 16:41 36.960754 -107.097761 226 38257ft 424kts
28-Jul-20 16:42 36.876206 -107.201539 226 38254ft 424kts
28-Jul-20 16:43 36.791650 -107.304987 226 38263ft 425kts
28-Jul-20 16:44 36.707062 -107.408132 226 38269ft 425kts
28-Jul-20 16:45 36.622459 -107.510963 225 38267ft 425kts
28-Jul-20 16:46 36.537404 -107.614007 225 38262ft 424kts
28-Jul-20 16:47 36.452563 -107.716464 225 38251ft 425kts
28-Jul-20 16:48 36.367322 -107.819070 225 38256ft 425kts
28-Jul-20 16:49 36.282082 -107.921323 225 38261ft 425kts
28-Jul-20 16:50 36.196866 -108.023230 225 38257ft 425kts
28-Jul-20 16:51 36.111432 -108.125081 225 38238ft 425kts
28-Jul-20 16:52 36.025994 -108.226614 225 38219ft 424kts
28-Jul-20 16:53 35.940652 -108.327831 225 38227ft 424kts
28-Jul-20 16:54 35.854961 -108.429012 225 38243ft 425kts
28-Jul-20 16:55 35.769267 -108.529850 225 38257ft 426kts
28-Jul-20 16:56 35.683060 -108.630987 225 38256ft 427kts
28-Jul-20 16:57 35.597774 -108.730738 224 38263ft 428kts
28-Jul-20 16:58 35.511093 -108.831810 224 38263ft 429kts
28-Jul-20 16:59 35.426847 -108.936460 227 38263ft 429kts
28-Jul-20 17:00 35.344496 -109.043059 227 38258ft 429kts
28-Jul-20 17:01 35.262197 -109.149265 227 38243ft 429kts
28-Jul-20 17:02 35.179840 -109.255188 227 38234ft 429kts
28-Jul-20 17:03 35.097111 -109.361279 227 38226ft 429kts
28-Jul-20 17:04 35.014659 -109.466687 227 38229ft 429kts
28-Jul-20 17:05 34.931626 -109.572504 227 38234ft 430kts
28-Jul-20 17:06 34.848011 -109.678730 227 38229ft 431kts
28-Jul-20 17:07 34.764623 -109.784863 227 38222ft 432kts
28-Jul-20 17:08 34.691721 -109.900061 246 38220ft 432kts
28-Jul-20 17:09 34.642567 -110.032162 246 36839ft 426kts
28-Jul-20 17:10 34.593378 -110.163701 246 34355ft 429kts
28-Jul-20 17:11 34.543219 -110.297318 247 31437ft 438kts
28-Jul-20 17:12 34.494213 -110.427173 247 30060ft 414kts
28-Jul-20 17:13 34.446631 -110.552891 246 28170ft 403kts
28-Jul-20 17:14 34.400176 -110.675119 246 26189ft 392kts
28-Jul-20 17:15 34.353756 -110.793061 236 24228ft 382kts
28-Jul-20 17:16 34.283051 -110.887528 227 22292ft 374kts
28-Jul-20 17:17 34.212590 -110.978536 227 20365ft 365kts
28-Jul-20 17:18 34.143427 -111.067668 227 18560ft 354kts
28-Jul-20 17:19 34.076579 -111.153590 227 16802ft 346kts
28-Jul-20 17:20 34.011202 -111.237436 227 15077ft 337kts
28-Jul-20 17:21 33.947428 -111.319020 227 13416ft 328kts
28-Jul-20 17:22 33.885380 -111.398099 225 12024ft 313kts
28-Jul-20 17:23 33.816437 -111.459525 216 10643ft 302kts
28-Jul-20 17:24 33.748945 -111.517556 216 9253ft 294kts
28-Jul-20 17:25 33.685679 -111.571841 216 8420ft 254kts
28-Jul-20 17:26 33.630499 -111.618959 216 7905ft 239kts
28-Jul-20 17:27 33.576134 -111.664430 215 6808ft 240kts
28-Jul-20 17:28 33.521461 -111.710535 215 5719ft 239kts
28-Jul-20 17:29 33.468979 -111.756415 229 5024ft 221kts
28-Jul-20 17:30 33.439755 -111.815927 241 4425ft 198kts
28-Jul-20 17:31 33.428608 -111.877851 268 3142ft 186kts
28-Jul-20 17:32 33.428578 -111.931773 270 2273ft 136kts
28-Jul-20 17:33 33.428835 -111.976645 269 1588ft 133kts
28-Jul-20 17:34 33.428846 -112.017410 269 1118ft 68kts
28-Jul-20 17:35 33.429878 -112.021370 56 1118ft 0kts
28-Jul-20 17:36 33.429967 -112.020311 89 1118ft 8kts
28-Jul-20 17:37 33.429978 -112.016446 77 1118ft 12kts
28-Jul-20 17:38 33.432063 -112.015522 42 1118ft 1kts
28-Jul-20 17:39 33.433511 -112.015249 84 1118ft 5kts
28-Jul-20 17:40 33.433496 -112.014723 90 1118ft 0kts

Navigation Log

Ident Type
Flight plan parsing failed, navigation log unavailable